UNTT/TOF METAR and TAF weather

Enter ICAO airport designator
Station Type Date Time Source
UNTT METAR 2018/12/19 03:00 UTC NOAA

UNTT 190300Z 23005MPS 5000 -SHSN BKN011CB M09/M11 Q1009 R21/490237 NOSIG RMK QFE742


Station Type Date Time Source
UNTT Decoded METAR 2018/12/19 03:00 UTC NOAA

Station name not available
Dec 18, 2018 - 10:00 PM EST / 2018.12.19 0300 UTC
Wind: from the SW (230 degrees) at 11 MPH (10 KT):0
Visibility: 3 mile(s):0
Sky conditions: mostly cloudy
Weather: light snow showers; Cumulonimbus clouds observed
Temperature: 15 F (-9 C)
Windchill: 1 F (-17 C):1
Dew Point: 12 F (-11 C)
Relative Humidity: 85%
Pressure (altimeter): 29.80 in. Hg (1009 hPa)
ob: UNTT 190300Z 23005MPS 5000 -SHSN BKN011CB M09/M11 Q1009 R21/490237 NOSIG RMK QFE742
cycle: 3

Station Type Date Time Source
UNTT TAF UTC NOAA

Error!


Example: see airport list